Time;durP1;ratioP1;P1;durP2;ratioP2;P2;SDS_P1;SDS_P2;PMS_P1;PMS_P2;Temp;Humidity;BMP_temperature;BMP_pressure;BME280_temperature;BME280_humidity;BME280_pressure;Samples;Min_cycle;Max_cycle;Signal;HPM_P1;HPM_P2
2021/06/18 00:00:56;;;;;;;25.47;13.23;;;;;;;14.79;100.00;95014.94;10528077;28;20028;-73
2021/06/18 00:05:56;;;;;;;26.58;15.55;;;;;;;14.72;100.00;95005.56;10527427;28;20779;-73
2021/06/18 00:10:56;;;;;;;25.10;14.40;;;;;;;14.52;100.00;94985.78;10527326;28;20437;-73
2021/06/18 00:15:57;;;;;;;29.03;14.57;;;;;;;14.56;100.00;94986.03;10527973;28;20028;-73
2021/06/18 00:20:57;;;;;;;29.23;13.07;;;;;;;14.74;100.00;94989.84;10526630;28;20034;-73
2021/06/18 00:25:58;;;;;;;23.90;14.80;;;;;;;14.74;100.00;94987.94;10527486;28;20097;-73
2021/06/18 00:31:01;;;;;;;18.98;12.90;;;;;;;14.86;100.00;94990.19;10526925;28;20044;-73
2021/06/18 00:36:01;;;;;;;34.72;17.30;;;;;;;14.75;100.00;94984.16;10526264;28;20384;-73
2021/06/18 00:41:02;;;;;;;22.67;12.23;;;;;;;14.60;100.00;94987.84;10542391;28;20028;-73
2021/06/18 00:46:03;;;;;;;20.80;12.77;;;;;;;14.55;100.00;94977.09;10526631;28;20165;-73
2021/06/18 00:51:04;;;;;;;22.33;12.88;;;;;;;14.61;100.00;94983.22;10525435;28;20031;-73
2021/06/18 00:56:05;;;;;;;25.48;13.73;;;;;;;14.75;100.00;94986.84;10526264;28;20124;-73
2021/06/18 01:01:05;;;;;;;18.67;11.73;;;;;;;14.70;100.00;94965.28;10525673;28;20642;-73
2021/06/18 01:06:09;;;;;;;24.87;12.57;;;;;;;14.74;100.00;94977.13;10525384;28;20023;-73
2021/06/18 01:11:32;;;;;;;18.45;12.93;;;;;;;14.72;100.00;94971.22;10540725;28;20039;-73
2021/06/18 01:16:37;;;;;;;16.55;10.32;;;;;;;14.60;100.00;94958.09;10495526;28;20093;-73
2021/06/18 01:21:50;;;;;;;18.50;9.32;;;;;;;14.52;100.00;94953.34;10525354;28;20415;-73
2021/06/18 01:26:59;;;;;;;15.15;7.97;;;;;;;14.48;100.00;94961.25;10524327;28;20036;-73
2021/06/18 01:32:03;;;;;;;12.07;8.77;;;;;;;14.45;100.00;94951.00;10523315;28;20056;-73
2021/06/18 01:37:08;;;;;;;18.63;12.07;;;;;;;14.39;100.00;94957.56;10524654;28;20032;-73
2021/06/18 01:42:10;;;;;;;21.73;11.25;;;;;;;14.44;100.00;94962.09;10538270;28;20032;-73
2021/06/18 01:47:15;;;;;;;19.15;11.95;;;;;;;14.46;100.00;94966.13;10524094;28;20032;-73
2021/06/18 01:52:16;;;;;;;12.35;10.05;;;;;;;14.41;100.00;94955.38;10523638;28;20032;-73
2021/06/18 01:57:20;;;;;;;16.40;10.65;;;;;;;14.41;100.00;94955.38;10522589;28;20499;-73
2021/06/18 02:02:22;;;;;;;14.85;9.60;;;;;;;14.46;100.00;94963.41;10524346;28;20028;-73
2021/06/18 02:07:25;;;;;;;13.27;9.48;;;;;;;14.40;100.00;94961.91;10523749;28;20030;-73
2021/06/18 02:12:26;;;;;;;11.90;8.15;;;;;;;14.29;100.00;94955.81;10523331;28;20024;-73
2021/06/18 02:17:29;;;;;;;16.20;8.93;;;;;;;14.27;100.00;94958.00;10521594;28;20035;-73
2021/06/18 02:22:30;;;;;;;10.68;8.30;;;;;;;14.17;100.00;94968.94;10523622;28;20031;-73
2021/06/18 02:27:32;;;;;;;8.98;7.40;;;;;;;14.22;100.00;94965.38;10523501;28;20085;-73
2021/06/18 02:32:34;;;;;;;16.95;8.55;;;;;;;14.24;100.00;94976.72;10522258;28;20055;-73
2021/06/18 02:37:35;;;;;;;14.40;8.00;;;;;;;14.28;100.00;94970.41;10523506;28;20107;-73
2021/06/18 02:42:36;;;;;;;18.48;9.02;;;;;;;14.27;100.00;94965.31;10523029;28;20035;-73
2021/06/18 02:47:41;;;;;;;9.57;5.13;;;;;;;14.04;100.00;94964.22;10521633;28;20035;-73
2021/06/18 02:52:54;;;;;;;11.60;5.68;;;;;;;13.91;100.00;94960.34;10526632;28;20062;-73
2021/06/18 02:57:58;;;;;;;13.98;7.22;;;;;;;13.75;100.00;94962.44;10530746;28;20419;-73
2021/06/18 03:02:59;;;;;;;19.00;11.55;;;;;;;13.69;100.00;94975.19;10529694;28;20115;-73
2021/06/18 03:08:02;;;;;;;77.80;13.70;;;;;;;13.47;100.00;94983.78;10530470;28;20026;-73
2021/06/18 03:13:08;;;;;;;94.95;14.25;;;;;;;13.40;100.00;94997.59;10529925;28;20062;-73
2021/06/18 03:18:10;;;;;;;133.10;15.07;;;;;;;13.36;100.00;95015.47;10529822;28;20111;-73
2021/06/18 03:23:15;;;;;;;84.50;14.32;;;;;;;13.56;100.00;95019.06;10529613;28;20039;-73
2021/06/18 03:28:17;;;;;;;118.28;15.38;;;;;;;13.53;100.00;95008.84;10529465;28;20101;-73
2021/06/18 03:33:21;;;;;;;83.90;14.57;;;;;;;13.58;100.00;95003.41;10528533;28;20044;-73
2021/06/18 03:38:21;;;;;;;31.52;14.70;;;;;;;13.64;100.00;94999.53;10528507;28;20040;-73
2021/06/18 03:43:22;;;;;;;38.30;15.00;;;;;;;13.71;100.00;95008.09;10528819;28;20486;-73
2021/06/18 03:48:23;;;;;;;29.42;14.60;;;;;;;13.88;100.00;95010.34;10528770;28;20028;-73
2021/06/18 03:53:23;;;;;;;24.38;13.25;;;;;;;13.90;100.00;95007.34;10527647;28;20472;-73
2021/06/18 03:58:25;;;;;;;28.77;12.97;;;;;;;13.70;100.00;95003.00;10526797;28;20028;-73
2021/06/18 04:03:27;;;;;;;25.00;13.15;;;;;;;13.76;100.00;95005.34;10528169;28;20274;-73
2021/06/18 04:08:29;;;;;;;20.75;11.50;;;;;;;13.73;100.00;95003.25;10528204;28;20040;-73
2021/06/18 04:13:30;;;;;;;19.08;10.73;;;;;;;13.91;100.00;95007.09;10543735;28;20456;-73
2021/06/18 04:18:33;;;;;;;21.73;11.48;;;;;;;14.25;100.00;95010.75;10528500;28;20031;-73
2021/06/18 04:23:33;;;;;;;18.13;10.07;;;;;;;14.56;100.00;94991.44;10527725;28;20034;-73
2021/06/18 04:28:39;;;;;;;14.97;8.43;;;;;;;15.03;100.00;94992.38;10526094;28;20034;-72
2021/06/18 04:33:39;;;;;;;13.13;8.55;;;;;;;15.21;100.00;94983.41;10527340;28;20314;-74
2021/06/18 04:38:40;;;;;;;20.47;9.50;;;;;;;15.23;100.00;94982.31;10526309;28;20028;-74
2021/06/18 04:43:40;;;;;;;17.40;9.95;;;;;;;15.22;100.00;94989.63;10527104;28;20269;-74
2021/06/18 04:48:41;;;;;;;19.83;11.23;;;;;;;15.23;100.00;94995.88;10526458;28;20043;-74
2021/06/18 04:53:42;;;;;;;25.00;12.43;;;;;;;15.43;100.00;94998.22;10526288;28;20036;-74
2021/06/18 04:58:43;;;;;;;24.85;12.57;;;;;;;15.75;100.00;94988.44;10526290;28;20312;-74
2021/06/18 05:03:43;;;;;;;33.95;12.45;;;;;;;16.01;100.00;94993.41;10525602;28;20112;-73
2021/06/18 05:08:44;;;;;;;19.08;10.75;;;;;;;16.18;100.00;94993.59;10525585;28;20516;-73
2021/06/18 05:13:44;;;;;;;17.63;10.17;;;;;;;16.50;100.00;94989.13;10525365;28;20032;-73
2021/06/18 05:18:44;;;;;;;18.40;11.07;;;;;;;16.84;100.00;94992.47;10525267;28;20032;-73
2021/06/18 05:23:45;;;;;;;21.13;10.63;;;;;;;17.20;100.00;95000.59;10524915;28;20156;-73
2021/06/18 05:28:45;;;;;;;13.10;7.63;;;;;;;17.55;100.00;94994.59;10523459;28;20024;-73
2021/06/18 05:33:46;;;;;;;21.60;10.48;;;;;;;17.81;100.00;94992.03;10523677;28;20055;-73
2021/06/18 05:38:46;;;;;;;13.80;7.53;;;;;;;18.38;100.00;94985.06;10523737;28;20032;-73
2021/06/18 05:43:46;;;;;;;16.20;8.13;;;;;;;19.08;100.00;94983.22;10522544;28;20044;-73
2021/06/18 05:48:47;;;;;;;13.73;7.87;;;;;;;19.55;100.00;94989.91;10522813;28;20833;-73
2021/06/18 05:53:47;;;;;;;14.30;7.07;;;;;;;20.32;100.00;94984.53;10522627;28;20285;-73
2021/06/18 05:58:48;;;;;;;18.00;7.20;;;;;;;20.52;100.00;94979.44;10522492;28;20027;-73
2021/06/18 06:03:49;;;;;;;19.53;8.30;;;;;;;20.57;100.00;94977.31;10523811;28;20020;-73
2021/06/18 06:08:52;;;;;;;12.07;7.47;;;;;;;21.08;100.00;94980.00;10523174;28;20032;-73
2021/06/18 06:14:01;;;;;;;15.85;8.32;;;;;;;21.37;100.00;94974.81;10524188;28;20032;-73
2021/06/18 06:19:02;;;;;;;15.10;8.77;;;;;;;21.49;100.00;94956.50;10523490;28;20085;-73
2021/06/18 06:24:02;;;;;;;16.10;8.50;;;;;;;22.45;100.00;94951.03;10523338;28;20685;-74
2021/06/18 06:29:03;;;;;;;11.02;5.88;;;;;;;23.02;100.00;94955.50;10528391;28;20036;-73
2021/06/18 06:34:03;;;;;;;12.88;4.90;;;;;;;23.68;100.00;94950.66;10529793;28;20059;-73
2021/06/18 06:39:05;;;;;;;18.97;6.67;;;;;;;24.69;100.00;94946.84;10531066;28;20020;-76
2021/06/18 06:44:05;;;;;;;13.75;6.05;;;;;;;24.99;95.29;94941.63;10532744;28;20020;-77
2021/06/18 06:49:06;;;;;;;14.45;6.43;;;;;;;25.46;99.09;94937.06;10531030;28;20147;-76
2021/06/18 06:54:06;;;;;;;14.57;7.35;;;;;;;25.99;88.59;94938.41;10531589;28;20016;-76
2021/06/18 06:59:07;;;;;;;20.47;7.77;;;;;;;27.50;83.15;94917.72;10532157;28;20020;-76
2021/06/18 07:04:07;;;;;;;33.60;7.82;;;;;;;28.35;75.79;94916.91;10532019;28;20039;-75
2021/06/18 07:09:08;;;;;;;14.43;6.80;;;;;;;29.30;68.29;94913.53;10531348;28;20479;-76
2021/06/18 07:14:08;;;;;;;23.75;7.18;;;;;;;29.06;70.33;94909.47;10532266;28;20028;-76
2021/06/18 07:19:08;;;;;;;13.37;5.93;;;;;;;30.18;59.08;94899.44;10530952;28;20040;-76
2021/06/18 07:24:09;;;;;;;14.27;5.50;;;;;;;30.32;55.09;94893.09;10531400;28;20031;-76
2021/06/18 07:29:09;;;;;;;11.20;6.43;;;;;;;29.03;60.06;94888.88;10531109;28;20106;-76
2021/06/18 07:34:10;;;;;;;13.40;5.53;;;;;;;28.49;68.16;94888.56;10530942;28;20059;-76
2021/06/18 07:39:10;;;;;;;14.57;6.85;;;;;;;27.95;74.92;94877.91;10529280;28;20032;-76
2021/06/18 07:44:10;;;;;;;10.63;6.53;;;;;;;27.95;78.61;94868.81;10530958;28;20032;-76
2021/06/18 07:49:11;;;;;;;14.05;7.20;;;;;;;27.92;78.61;94875.09;10530664;28;20062;-76
2021/06/18 07:54:12;;;;;;;17.27;6.20;;;;;;;28.63;73.94;94872.13;10529768;28;20031;-76
2021/06/18 07:59:12;;;;;;;16.48;6.40;;;;;;;30.55;61.57;94861.44;10529870;28;20028;-76
2021/06/18 08:04:13;;;;;;;11.70;5.55;;;;;;;31.83;54.54;94873.16;10529514;28;20035;-76
2021/06/18 08:09:14;;;;;;;12.30;5.03;;;;;;;32.43;48.36;94866.72;10529817;28;20039;-76
2021/06/18 08:14:14;;;;;;;13.40;5.17;;;;;;;33.61;45.74;94877.75;10528979;28;20032;-76
2021/06/18 08:19:14;;;;;;;13.03;5.30;;;;;;;34.65;39.17;94858.56;10528854;28;20106;-76
2021/06/18 08:24:15;;;;;;;13.93;3.87;;;;;;;33.68;40.04;94853.31;10528626;28;20517;-76
2021/06/18 08:29:15;;;;;;;16.27;4.83;;;;;;;33.12;41.57;94844.53;10528445;28;20036;-76
2021/06/18 08:34:15;;;;;;;7.32;3.63;;;;;;;34.73;38.45;94857.22;10527980;28;20063;-76
2021/06/18 08:39:16;;;;;;;8.87;4.67;;;;;;;32.93;40.90;94849.53;10528018;28;20047;-77
2021/06/18 08:44:17;;;;;;;8.07;3.77;;;;;;;31.92;42.28;94855.25;10527786;28;20274;-76
2021/06/18 08:49:17;;;;;;;12.10;4.00;;;;;;;30.74;47.88;94847.09;10527928;28;20059;-76
2021/06/18 08:54:18;;;;;;;8.05;4.10;;;;;;;29.57;50.21;94839.25;10528154;28;20146;-76
2021/06/18 08:59:19;;;;;;;5.72;4.57;;;;;;;28.97;56.02;94837.88;10527166;28;20038;-76
2021/06/18 09:04:19;;;;;;;10.20;4.50;;;;;;;28.66;62.41;94839.31;10527728;28;20031;-76
2021/06/18 09:09:22;;;;;;;7.93;3.60;;;;;;;28.30;58.81;94831.59;10527571;28;20792;-76
2021/06/18 09:14:28;;;;;;;4.03;2.80;;;;;;;27.84;62.30;94827.31;10526404;28;20030;-76
2021/06/18 09:19:29;;;;;;;5.55;2.92;;;;;;;27.62;58.13;94829.09;10527374;28;20699;-76
2021/06/18 09:24:33;;;;;;;5.05;3.30;;;;;;;27.55;60.15;94832.56;10526271;28;20388;-76
2021/06/18 09:29:35;;;;;;;5.45;2.50;;;;;;;26.74;63.38;94834.06;10527039;28;20080;-76
2021/06/18 09:34:59;;;;;;;8.10;3.25;;;;;;;25.69;71.20;94828.94;10525727;28;20135;-76
2021/06/18 09:40:03;;;;;;;10.30;3.08;;;;;;;26.39;79.67;94822.16;10525934;28;20024;-76
2021/06/18 09:45:14;;;;;;;6.75;2.80;;;;;;;26.64;72.19;94818.94;10526009;28;20024;-76
2021/06/18 09:50:14;;;;;;;4.13;2.40;;;;;;;26.92;71.51;94813.00;10525899;28;20109;-76
2021/06/18 09:55:21;;;;;;;9.70;3.03;;;;;;;26.84;69.13;94818.81;10525705;28;20032;-76
2021/06/18 10:00:26;;;;;;;6.38;2.72;;;;;;;26.94;67.94;94804.34;10526034;28;20040;-76
2021/06/18 10:05:33;;;;;;;4.30;2.13;;;;;;;28.45;62.57;94800.09;10533818;28;20119;-75
2021/06/18 10:10:35;;;;;;;4.05;2.35;;;;;;;29.24;60.58;94794.09;10534554;28;20034;-75
2021/06/18 10:15:38;;;;;;;6.85;2.28;;;;;;;29.56;53.15;94795.31;10533716;28;20120;-75
2021/06/18 10:20:39;;;;;;;1.95;1.75;;;;;;;29.92;45.85;94796.13;10532670;28;20115;-75
2021/06/18 10:25:51;;;;;;;6.20;2.13;;;;;;;30.03;44.28;94790.59;10533688;28;20046;-75
2021/06/18 10:30:53;;;;;;;5.00;2.20;;;;;;;29.94;44.94;94788.22;10533481;28;20162;-75
2021/06/18 10:36:07;;;;;;;2.58;2.10;;;;;;;29.58;51.01;94787.41;10532744;28;20059;-75
2021/06/18 10:41:16;;;;;;;4.03;2.00;;;;;;;29.21;48.62;94780.22;10532684;28;20140;-75
2021/06/18 10:46:17;;;;;;;3.80;1.95;;;;;;;28.76;51.38;94778.53;10531265;28;20745;-75
2021/06/18 10:51:29;;;;;;;4.87;2.20;;;;;;;28.37;56.00;94776.34;10531897;28;20035;-75
2021/06/18 10:56:45;;;;;;;3.75;2.17;;;;;;;28.03;56.49;94761.94;10530583;28;20035;-75
2021/06/18 11:01:47;;;;;;;6.13;2.20;;;;;;;27.89;61.17;94768.16;10530568;28;20024;-75
2021/06/18 11:06:50;;;;;;;4.10;2.10;;;;;;;27.53;60.51;94765.09;10531167;28;20479;-74
2021/06/18 11:11:51;;;;;;;8.20;2.78;;;;;;;27.69;68.50;94762.88;10531403;28;20103;-74
2021/06/18 11:16:51;;;;;;;6.45;2.53;;;;;;;27.73;71.60;94749.88;10531112;28;20032;-74
2021/06/18 11:21:53;;;;;;;4.27;2.50;;;;;;;27.64;63.72;94749.41;10531705;28;20031;-74
2021/06/18 11:27:22;;;;;;;5.07;2.40;;;;;;;27.44;61.82;94746.13;10531448;28;20396;-74
2021/06/18 11:32:45;;;;;;;5.47;2.60;;;;;;;27.19;76.38;94743.91;10529722;28;20044;-74
2021/06/18 11:37:45;;;;;;;12.20;4.22;;;;;;;26.45;76.87;94739.94;10528171;28;20039;-74
2021/06/18 11:42:46;;;;;;;6.53;3.22;;;;;;;26.05;81.65;94736.69;10527629;28;20035;-74
2021/06/18 11:47:47;;;;;;;5.38;3.28;;;;;;;25.91;77.97;94744.72;10527998;28;20031;-74
2021/06/18 11:52:54;;;;;;;9.05;3.13;;;;;;;25.56;97.85;94748.53;10527644;28;20020;-74
2021/06/18 11:57:55;;;;;;;8.05;3.88;;;;;;;25.18;100.00;94747.50;10527793;28;20434;-75
2021/06/18 12:02:58;;;;;;;6.57;3.33;;;;;;;25.14;100.00;94757.63;10529601;28;20043;-74
2021/06/18 12:07:59;;;;;;;5.53;3.03;;;;;;;25.05;97.39;94766.13;10528233;28;20028;-74
2021/06/18 12:13:00;;;;;;;7.63;2.60;;;;;;;25.18;95.37;94764.00;10529508;28;20118;-74
2021/06/18 12:18:06;;;;;;;3.17;2.60;;;;;;;25.47;82.28;94759.81;10529494;28;20068;-74
2021/06/18 12:23:16;;;;;;;3.97;2.55;;;;;;;25.97;83.92;94759.75;10534516;28;20016;-74
2021/06/18 12:28:16;;;;;;;4.88;2.30;;;;;;;26.47;73.56;94748.66;10527897;28;20463;-74
2021/06/18 12:33:17;;;;;;;8.90;2.35;;;;;;;26.83;79.66;94746.28;10528283;28;20044;-74
2021/06/18 12:38:17;;;;;;;2.65;1.83;;;;;;;27.04;67.04;94754.00;10528704;28;20028;-74
2021/06/18 12:43:18;;;;;;;3.07;2.30;;;;;;;27.06;70.47;94748.13;10527751;28;20049;-73
2021/06/18 12:48:21;;;;;;;5.07;2.00;;;;;;;27.15;61.56;94758.84;10528109;28;20273;-73
2021/06/18 12:53:37;;;;;;;11.43;2.22;;;;;;;27.23;70.71;94743.94;10527713;28;20673;-73
2021/06/18 12:58:38;;;;;;;2.30;2.10;;;;;;;26.96;70.28;94746.84;10527713;28;20036;-74
2021/06/18 13:03:53;;;;;;;8.73;2.00;;;;;;;26.78;61.56;94744.69;10527189;28;20479;-73
2021/06/18 13:08:53;;;;;;;3.53;1.55;;;;;;;26.80;60.72;94741.53;10526897;28;20028;-76
2021/06/18 13:14:15;;;;;;;2.67;1.67;;;;;;;26.98;57.79;94738.97;10527274;28;20493;-74
2021/06/18 13:19:18;;;;;;;5.43;2.10;;;;;;;26.81;60.23;94729.34;10527026;28;20040;-75
2021/06/18 13:24:20;;;;;;;4.40;2.08;;;;;;;26.86;70.07;94733.72;10527021;28;20028;-76
2021/06/18 13:29:22;;;;;;;3.40;2.03;;;;;;;26.82;63.36;94732.88;10525788;28;20403;-75
2021/06/18 13:34:28;;;;;;;2.35;2.00;;;;;;;26.40;68.43;94735.56;10525445;28;20079;-75
2021/06/18 13:39:39;;;;;;;8.30;2.85;;;;;;;26.06;73.74;94737.47;10526712;28;20024;-75
2021/06/18 13:44:39;;;;;;;3.65;1.92;;;;;;;25.41;78.09;94737.31;10526686;28;20050;-75
2021/06/18 13:49:40;;;;;;;2.60;1.97;;;;;;;25.21;73.25;94741.25;10525837;28;20106;-75
2021/06/18 13:54:40;;;;;;;3.67;2.15;;;;;;;25.16;77.95;94741.56;10525634;28;20028;-75
2021/06/18 13:59:41;;;;;;;5.20;2.23;;;;;;;24.97;85.79;94742.41;10525582;28;20164;-75
2021/06/18 14:04:48;;;;;;;5.73;2.60;;;;;;;24.87;84.46;94744.59;10524467;28;20047;-75
2021/06/18 14:09:48;;;;;;;3.43;2.20;;;;;;;24.67;85.50;94749.34;10525219;28;20289;-76
2021/06/18 14:15:16;;;;;;;2.60;2.30;;;;;;;24.46;86.97;94746.94;10525108;28;20046;-75
2021/06/18 14:20:10;;;;;;;3.83;1.98;;;;;;;23.95;93.90;94756.06;10524722;28;20032;-74
2021/06/18 14:25:11;;;;;;;3.72;2.15;;;;;;;23.57;100.00;94760.28;10496753;28;20024;-73
2021/06/18 14:30:12;;;;;;;6.80;2.28;;;;;;;23.32;100.00;94759.69;10486303;28;20108;-72
2021/06/18 14:35:13;;;;;;;5.63;2.38;;;;;;;23.27;100.00;94751.72;10487557;28;20059;-73
2021/06/18 14:40:14;;;;;;;8.05;3.17;;;;;;;23.23;100.00;94754.38;10486631;28;20043;-73
2021/06/18 14:45:15;;;;;;;3.75;2.30;;;;;;;23.15;100.00;94764.38;10486642;28;20510;-72
2021/06/18 14:50:15;;;;;;;6.43;2.67;;;;;;;23.12;100.00;94756.06;10492031;28;20112;-72
2021/06/18 14:55:15;;;;;;;5.00;2.40;;;;;;;22.88;100.00;94749.53;10493777;28;20029;-73
2021/06/18 15:00:17;;;;;;;2.70;2.20;;;;;;;22.78;100.00;94745.38;10493893;28;20267;-73
2021/06/18 15:05:18;;;;;;;4.63;2.50;;;;;;;22.36;100.00;94740.34;10494032;28;20836;-72
2021/06/18 15:10:18;;;;;;;4.68;2.67;;;;;;;22.21;100.00;94733.63;10493362;28;20169;-73
2021/06/18 15:15:19;;;;;;;8.25;2.72;;;;;;;21.78;100.00;94735.09;10493339;28;20020;-72
2021/06/18 15:20:19;;;;;;;6.47;2.57;;;;;;;21.65;100.00;94726.91;10492911;28;20198;-72
2021/06/18 15:25:20;;;;;;;5.18;3.20;;;;;;;21.63;100.00;94723.72;10491960;28;20020;-72
2021/06/18 15:30:21;;;;;;;6.38;3.03;;;;;;;21.77;100.00;94714.34;10492601;28;20569;-73
2021/06/18 15:35:21;;;;;;;4.57;2.90;;;;;;;21.79;100.00;94706.59;10492370;28;20089;-72
2021/06/18 15:40:22;;;;;;;5.55;3.80;;;;;;;22.00;100.00;94700.97;10492053;28;20085;-73
2021/06/18 15:45:25;;;;;;;5.18;3.30;;;;;;;22.07;100.00;94706.63;10492090;28;20119;-73
2021/06/18 15:50:26;;;;;;;3.47;2.63;;;;;;;22.34;100.00;94696.88;10491965;28;20395;-73
2021/06/18 15:55:26;;;;;;;5.50;2.75;;;;;;;22.32;100.00;94704.59;10491503;28;20032;-73
2021/06/18 16:00:26;;;;;;;3.80;3.00;;;;;;;22.48;100.00;94692.91;10514549;28;20016;-72
2021/06/18 16:05:27;;;;;;;3.23;2.60;;;;;;;22.31;100.00;94689.34;10533073;28;20032;-73
2021/06/18 16:10:27;;;;;;;6.63;3.17;;;;;;;22.12;100.00;94683.72;10531599;28;20290;-73
2021/06/18 16:15:28;;;;;;;6.28;3.20;;;;;;;22.00;100.00;94674.38;10532535;28;20028;-73
2021/06/18 16:20:28;;;;;;;11.93;4.93;;;;;;;21.79;100.00;94671.03;10532486;28;20028;-73
2021/06/18 16:25:29;;;;;;;8.33;4.17;;;;;;;21.80;100.00;94667.97;10489507;28;20085;-73
2021/06/18 16:30:30;;;;;;;6.10;3.28;;;;;;;21.88;100.00;94666.25;10490725;28;20056;-73
2021/06/18 16:35:30;;;;;;;10.93;3.47;;;;;;;21.93;100.00;94668.72;10490128;28;20139;-73
2021/06/18 16:40:31;;;;;;;7.72;3.15;;;;;;;22.13;100.00;94671.59;10516369;28;20483;-73
2021/06/18 16:45:32;;;;;;;8.40;3.03;;;;;;;22.23;100.00;94673.84;10530791;28;20127;-73
2021/06/18 16:50:32;;;;;;;10.02;3.55;;;;;;;22.17;100.00;94667.84;10532077;28;20039;-73
2021/06/18 16:55:33;;;;;;;8.10;2.83;;;;;;;22.18;100.00;94668.63;10531919;28;20088;-73
2021/06/18 17:00:33;;;;;;;5.25;3.10;;;;;;;22.15;100.00;94670.13;10530926;28;20028;-73
2021/06/18 17:05:35;;;;;;;7.40;3.38;;;;;;;22.08;100.00;94664.44;10530639;28;20100;-73
2021/06/18 17:10:38;;;;;;;7.53;3.63;;;;;;;22.07;100.00;94673.00;10529506;28;20047;-74
2021/06/18 17:15:42;;;;;;;7.13;3.47;;;;;;;21.89;100.00;94664.28;10529635;28;20071;-73
2021/06/18 17:20:43;;;;;;;4.93;2.97;;;;;;;21.84;100.00;94666.13;10529552;28;20035;-73
2021/06/18 17:25:44;;;;;;;10.52;4.22;;;;;;;21.79;100.00;94668.31;10528872;28;20054;-73
2021/06/18 17:30:44;;;;;;;8.50;3.67;;;;;;;21.67;100.00;94667.22;10528962;28;20032;-73
2021/06/18 17:35:44;;;;;;;9.27;4.03;;;;;;;21.66;100.00;94668.34;10527570;28;20044;-73
2021/06/18 17:40:45;;;;;;;11.97;4.13;;;;;;;21.66;100.00;94667.56;10527253;28;20039;-73
2021/06/18 17:45:46;;;;;;;13.70;4.72;;;;;;;21.46;100.00;94664.59;10527307;28;20658;-73
2021/06/18 17:50:51;;;;;;;14.75;5.43;;;;;;;21.50;100.00;94668.25;10528361;28;20028;-73
2021/06/18 17:55:52;;;;;;;10.50;3.75;;;;;;;21.30;100.00;94653.56;10528296;28;20039;-73
2021/06/18 18:00:53;;;;;;;13.30;4.25;;;;;;;21.19;100.00;94660.63;10528249;28;20059;-73
2021/06/18 18:05:54;;;;;;;8.32;4.97;;;;;;;21.09;100.00;94663.84;10527643;28;20032;-73
2021/06/18 18:10:54;;;;;;;9.07;4.20;;;;;;;21.05;100.00;94666.44;10526800;28;20512;-73
2021/06/18 18:15:55;;;;;;;11.88;5.88;;;;;;;21.03;100.00;94671.47;10527898;28;20379;-73
2021/06/18 18:20:55;;;;;;;12.30;5.05;;;;;;;21.01;100.00;94673.72;10527512;28;20047;-73
2021/06/18 18:25:57;;;;;;;16.42;5.25;;;;;;;21.03;100.00;94676.13;10533114;28;20036;-73
2021/06/18 18:30:57;;;;;;;12.48;4.95;;;;;;;21.02;100.00;94680.00;10535866;28;20056;-73
2021/06/18 18:35:58;;;;;;;13.27;4.95;;;;;;;21.08;100.00;94690.34;10535460;28;20582;-73
2021/06/18 18:40:58;;;;;;;15.07;6.07;;;;;;;21.07;100.00;94693.44;10535224;28;20492;-73
2021/06/18 18:45:59;;;;;;;9.45;5.80;;;;;;;21.05;100.00;94701.19;10535517;28;20458;-73
2021/06/18 18:50:59;;;;;;;10.90;5.13;;;;;;;21.07;100.00;94707.09;10534741;28;20024;-74
2021/06/18 18:56:00;;;;;;;7.88;5.43;;;;;;;21.08;100.00;94708.69;10533691;28;20273;-73
2021/06/18 19:01:01;;;;;;;13.10;5.37;;;;;;;21.08;100.00;94717.69;10534552;28;20519;-73
2021/06/18 19:06:01;;;;;;;9.60;4.38;;;;;;;21.05;100.00;94721.09;10534375;28;20028;-73
2021/06/18 19:11:02;;;;;;;9.57;4.77;;;;;;;21.02;100.00;94732.72;10533111;28;20032;-73
2021/06/18 19:16:03;;;;;;;9.98;5.05;;;;;;;21.01;100.00;94739.31;10533933;28;20339;-73
2021/06/18 19:21:04;;;;;;;7.95;4.35;;;;;;;20.99;100.00;94734.19;10534013;28;20103;-73
2021/06/18 19:26:04;;;;;;;13.70;5.90;;;;;;;20.97;100.00;94735.66;10533424;28;20024;-73
2021/06/18 19:31:05;;;;;;;8.85;5.28;;;;;;;20.97;100.00;94743.84;10532903;28;20043;-73
2021/06/18 19:36:06;;;;;;;10.50;4.47;;;;;;;20.86;100.00;94746.25;10533116;28;20044;-73
2021/06/18 19:41:06;;;;;;;8.95;3.95;;;;;;;20.70;100.00;94740.63;10532997;28;20028;-73
2021/06/18 19:46:06;;;;;;;17.73;5.00;;;;;;;20.71;100.00;94735.94;10532567;28;20028;-73
2021/06/18 19:51:07;;;;;;;10.18;3.70;;;;;;;20.58;100.00;94732.34;10532464;28;20031;-73
2021/06/18 19:56:07;;;;;;;8.32;3.60;;;;;;;20.53;100.00;94727.13;10532436;28;20799;-73
2021/06/18 20:01:08;;;;;;;6.47;3.88;;;;;;;20.45;100.00;94723.34;10531798;28;20013;-73
2021/06/18 20:06:09;;;;;;;5.63;4.30;;;;;;;20.29;100.00;94699.41;10532094;28;20027;-73
2021/06/18 20:11:10;;;;;;;6.13;5.00;;;;;;;20.31;100.00;94705.31;10532028;28;20028;-73
2021/06/18 20:16:12;;;;;;;8.10;4.78;;;;;;;20.22;100.00;94701.06;10530085;28;20024;-73
2021/06/18 20:21:14;;;;;;;11.25;5.72;;;;;;;20.07;100.00;94697.84;10531666;28;20025;-73
2021/06/18 20:26:14;;;;;;;10.50;5.28;;;;;;;19.97;100.00;94693.59;10531365;28;20066;-73
2021/06/18 20:31:15;;;;;;;13.93;6.20;;;;;;;19.94;100.00;94677.91;10530743;28;20043;-73
2021/06/18 20:36:16;;;;;;;13.18;5.78;;;;;;;19.77;100.00;94678.00;10530833;28;20131;-73
2021/06/18 20:41:20;;;;;;;18.00;7.03;;;;;;;19.66;100.00;94676.81;10530943;28;20024;-73
2021/06/18 20:46:21;;;;;;;14.75;6.50;;;;;;;19.47;100.00;94683.53;10529776;28;20024;-73
2021/06/18 20:51:22;;;;;;;16.25;6.38;;;;;;;19.36;100.00;94676.88;10530410;28;20558;-73
2021/06/18 20:56:22;;;;;;;18.42;7.32;;;;;;;19.22;100.00;94679.84;10530189;28;20032;-72
2021/06/18 21:01:23;;;;;;;13.93;7.88;;;;;;;19.06;100.00;94676.88;10528297;28;20024;-72
2021/06/18 21:06:23;;;;;;;10.40;7.78;;;;;;;19.03;100.00;94678.31;10528834;28;20103;-72
2021/06/18 21:11:24;;;;;;;14.07;7.50;;;;;;;19.10;100.00;94685.97;10527497;28;20077;-72
2021/06/18 21:16:24;;;;;;;10.02;7.15;;;;;;;19.21;100.00;94681.75;10526589;28;20270;-73
2021/06/18 21:21:25;;;;;;;10.20;7.20;;;;;;;19.12;100.00;94675.56;10528031;28;20483;-73
2021/06/18 21:26:25;;;;;;;13.07;7.73;;;;;;;19.11;100.00;94682.91;10528391;28;20111;-72
2021/06/18 21:31:25;;;;;;;10.50;7.57;;;;;;;18.90;100.00;94666.53;10528732;28;20380;-73
2021/06/18 21:36:26;;;;;;;15.90;8.30;;;;;;;18.89;100.00;94662.22;10529208;28;20274;-72
2021/06/18 21:41:26;;;;;;;15.77;7.47;;;;;;;18.85;100.00;94658.53;10528638;28;20020;-73
2021/06/18 21:46:28;;;;;;;11.68;6.72;;;;;;;18.76;100.00;94663.22;10528742;28;20135;-73
2021/06/18 21:51:31;;;;;;;13.18;6.95;;;;;;;18.82;100.00;94666.53;10528951;28;20024;-73
2021/06/18 21:56:31;;;;;;;17.05;6.32;;;;;;;18.85;100.00;94665.88;10527636;28;20462;-73
2021/06/18 22:01:33;;;;;;;11.83;6.93;;;;;;;18.87;100.00;94659.03;10527967;28;20035;-73
2021/06/18 22:06:33;;;;;;;18.65;7.72;;;;;;;18.82;100.00;94651.00;10528069;28;20089;-73
2021/06/18 22:11:34;;;;;;;15.43;7.20;;;;;;;18.66;100.00;94658.94;10526960;28;20031;-73
2021/06/18 22:16:34;;;;;;;13.60;7.03;;;;;;;18.61;100.00;94665.34;10526302;28;20306;-73
2021/06/18 22:21:34;;;;;;;15.23;7.43;;;;;;;18.64;100.00;94666.59;10526990;28;20024;-73
2021/06/18 22:26:37;;;;;;;16.27;8.57;;;;;;;18.48;100.00;94666.34;10527976;28;20035;-73
2021/06/18 22:31:38;;;;;;;16.02;7.88;;;;;;;18.40;100.00;94667.97;10527110;28;20092;-73
2021/06/18 22:36:38;;;;;;;13.45;8.00;;;;;;;18.37;100.00;94665.88;10527938;28;20024;-73
2021/06/18 22:41:40;;;;;;;11.70;7.67;;;;;;;18.55;100.00;94661.19;10527706;28;20028;-73
2021/06/18 22:46:40;;;;;;;14.70;8.43;;;;;;;18.66;100.00;94652.69;10527244;28;20023;-73
2021/06/18 22:51:41;;;;;;;14.03;7.53;;;;;;;18.69;100.00;94662.91;10527810;28;20035;-73
2021/06/18 22:56:41;;;;;;;12.10;7.53;;;;;;;18.69;100.00;94652.81;10527776;28;20115;-73
2021/06/18 23:01:42;;;;;;;10.05;7.65;;;;;;;18.72;100.00;94656.81;10527090;28;20031;-73